createdAt,value
2019-04-21T00:03:35.511Z,84.80
2019-04-21T00:09:00.923Z,86.00
2019-04-21T00:13:59.412Z,85.70
2019-04-21T00:18:59.931Z,84.40
2019-04-21T00:24:24.867Z,84.20
2019-04-21T00:29:38.580Z,84.40
2019-04-21T00:34:23.964Z,84.70
2019-04-21T00:39:58.770Z,85.70
2019-04-21T00:44:54.236Z,85.80
2019-04-21T00:50:25.115Z,87.20
2019-04-21T01:00:40.700Z,88.80
2019-04-21T01:05:53.084Z,90.00
2019-04-21T01:10:49.267Z,89.60
2019-04-21T01:16:05.853Z,90.30
2019-04-21T01:20:46.778Z,90.20
2019-04-21T01:26:06.594Z,90.40
2019-04-21T01:31:37.638Z,90.90
2019-04-21T01:36:45.567Z,91.00
2019-04-21T01:42:00.070Z,91.00
2019-04-21T01:46:54.524Z,91.10
2019-04-21T01:57:39.421Z,91.50
2019-04-21T02:02:54.927Z,91.70
2019-04-21T02:07:55.154Z,91.60
2019-04-21T02:13:03.232Z,91.50
2019-04-21T02:18:08.970Z,91.90
2019-04-21T02:23:31.549Z,91.70
2019-04-21T02:28:29.813Z,92.50
2019-04-21T02:33:53.067Z,92.70
2019-04-21T02:39:08.233Z,92.70
2019-04-21T02:44:00.616Z,92.60
2019-04-21T03:10:26.243Z,94.20
2019-04-21T03:20:35.739Z,94.60
2019-04-21T03:40:57.812Z,95.30
2019-04-21T03:46:08.583Z,95.50
2019-04-21T03:51:27.629Z,95.40
2019-04-21T03:56:27.770Z,95.10
2019-04-21T04:01:32.873Z,95.20
2019-04-21T04:12:26.334Z,95.10
2019-04-21T04:17:23.982Z,95.10
2019-04-21T04:22:31.387Z,95.00
2019-04-21T04:27:48.740Z,95.10
2019-04-21T04:32:42.526Z,95.20
2019-04-21T04:48:11.187Z,95.60
2019-04-21T04:53:34.673Z,96.30
2019-04-21T04:58:29.761Z,96.70
2019-04-21T05:03:52.683Z,97.30
2019-04-21T05:08:52.986Z,97.20
2019-04-21T05:13:55.373Z,97.40
2019-04-21T05:19:06.538Z,97.40
2019-04-21T05:23:52.546Z,97.10
2019-04-21T05:28:50.893Z,96.40
2019-04-21T05:34:09.547Z,95.50
2019-04-21T05:39:14.780Z,94.90
2019-04-21T05:44:27.989Z,93.70
2019-04-21T05:49:34.058Z,93.10
2019-04-21T05:54:44.230Z,91.50
2019-04-21T05:59:49.100Z,89.50
2019-04-21T06:10:16.938Z,85.20
2019-04-21T06:15:12.268Z,83.80
2019-04-21T06:20:35.180Z,81.50
2019-04-21T06:25:48.686Z,80.70
2019-04-21T06:30:59.284Z,77.70
2019-04-21T06:36:31.965Z,75.70
2019-04-21T06:51:43.544Z,70.20
2019-04-21T06:56:51.712Z,68.60
2019-04-21T07:02:13.469Z,65.00
2019-04-21T07:07:05.204Z,62.70
2019-04-21T07:12:06.173Z,56.20
2019-04-21T07:17:24.249Z,56.50
2019-04-21T07:27:35.424Z,50.00
2019-04-21T07:32:42.813Z,49.70
2019-04-21T07:37:50.616Z,46.80
2019-04-21T07:42:49.806Z,45.20
2019-04-21T07:48:02.083Z,43.60
2019-04-21T07:53:14.189Z,43.30
2019-04-21T07:58:14.578Z,43.40
2019-04-21T08:03:28.446Z,41.90
2019-04-21T08:08:36.778Z,40.00
2019-04-21T08:13:44.980Z,39.70
2019-04-21T08:18:46.780Z,38.20
2019-04-21T08:23:58.252Z,36.70
2019-04-21T08:29:13.392Z,36.60
2019-04-21T08:34:13.875Z,36.30
2019-04-21T08:39:13.209Z,35.50
2019-04-21T08:44:25.806Z,32.60
2019-04-21T08:49:26.528Z,32.40
2019-04-21T08:54:42.645Z,32.20
2019-04-21T09:00:06.899Z,32.40
2019-04-21T09:05:15.404Z,31.60
2019-04-21T09:10:17.665Z,31.30
2019-04-21T09:15:25.222Z,32.30
2019-04-21T09:20:38.755Z,31.10
2019-04-21T09:30:30.728Z,29.70
2019-04-21T09:35:40.597Z,29.90
2019-04-21T09:40:49.042Z,29.60
2019-04-21T09:45:51.956Z,29.60
2019-04-21T09:50:58.175Z,29.10
2019-04-21T09:56:10.454Z,28.50
2019-04-21T10:01:20.329Z,28.80
2019-04-21T10:06:19.577Z,29.30
2019-04-21T10:11:26.722Z,29.30
2019-04-21T10:16:34.290Z,29.40
2019-04-21T10:21:40.281Z,28.50
2019-04-21T10:26:47.098Z,29.40
2019-04-21T10:31:52.493Z,28.60
2019-04-21T10:36:58.581Z,30.20
2019-04-21T10:42:04.079Z,29.40
2019-04-21T10:47:10.854Z,29.20
2019-04-21T10:52:17.564Z,27.90
2019-04-21T10:57:33.176Z,28.70
2019-04-21T11:02:43.315Z,28.40
2019-04-21T11:08:02.479Z,28.30
2019-04-21T11:12:58.620Z,28.00
2019-04-21T11:18:04.029Z,27.50
2019-04-21T11:23:10.143Z,26.50
2019-04-21T11:28:16.623Z,26.10
2019-04-21T11:33:22.790Z,26.00
2019-04-21T11:39:05.614Z,26.40
2019-04-21T11:43:53.145Z,25.90
2019-04-21T11:49:00.054Z,25.50
2019-04-21T11:54:06.700Z,24.10
2019-04-21T11:59:12.255Z,23.90
2019-04-21T12:04:17.959Z,24.80
2019-04-21T12:09:25.019Z,23.80
2019-04-21T12:14:30.310Z,23.30
2019-04-21T12:19:36.650Z,22.60
2019-04-21T12:24:43.002Z,22.90
2019-04-21T12:29:49.402Z,22.90
2019-04-21T12:34:57.809Z,23.70
2019-04-21T12:40:03.429Z,23.60
2019-04-21T12:45:09.785Z,24.70
2019-04-21T12:50:16.939Z,24.10
2019-04-21T12:55:26.176Z,25.30
2019-04-21T13:00:29.077Z,24.70
2019-04-21T13:05:35.687Z,25.20
2019-04-21T13:10:42.179Z,25.40
2019-04-21T13:15:51.673Z,25.80
2019-04-21T13:20:59.347Z,25.50
2019-04-21T13:26:04.983Z,25.80
2019-04-21T13:31:11.951Z,25.70
2019-04-21T13:36:18.157Z,26.20
2019-04-21T13:41:36.464Z,26.50
2019-04-21T13:46:31.088Z,24.60
2019-04-21T13:51:36.352Z,25.60
2019-04-21T13:56:42.564Z,25.40
2019-04-21T14:01:48.115Z,24.30
2019-04-21T14:06:54.210Z,25.40
2019-04-21T14:12:01.271Z,26.20
2019-04-21T14:17:07.114Z,25.40
2019-04-21T14:22:14.128Z,25.70
2019-04-21T14:27:20.394Z,25.60
2019-04-21T14:32:26.514Z,25.20
2019-04-21T14:37:32.883Z,25.70
2019-04-21T14:42:40.207Z,26.20
2019-04-21T14:47:54.241Z,24.90
2019-04-21T14:53:16.114Z,25.30
2019-04-21T14:58:21.461Z,25.60
2019-04-21T15:03:27.824Z,26.30
2019-04-21T15:08:33.455Z,25.20
2019-04-21T15:13:39.706Z,24.80
2019-04-21T15:18:46.455Z,24.60
2019-04-21T15:23:52.325Z,24.20
2019-04-21T15:28:57.501Z,24.60
2019-04-21T15:34:03.258Z,25.00
2019-04-21T15:39:09.984Z,25.10
2019-04-21T15:44:16.558Z,25.10
2019-04-21T15:49:23.090Z,28.10
2019-04-21T15:54:28.948Z,29.30
2019-04-21T15:59:36.747Z,29.90
2019-04-21T16:04:42.920Z,31.20
2019-04-21T16:09:48.477Z,32.00
2019-04-21T16:14:54.499Z,32.70
2019-04-21T16:19:59.733Z,34.40
2019-04-21T16:25:10.739Z,34.50
2019-04-21T16:30:17.668Z,35.60
2019-04-21T16:35:23.498Z,36.70
2019-04-21T16:40:41.347Z,36.70
2019-04-21T16:45:37.046Z,37.40
2019-04-21T16:50:43.512Z,38.20
2019-04-21T16:56:08.958Z,38.20
2019-04-21T17:01:20.222Z,39.60
2019-04-21T17:06:26.922Z,39.10
2019-04-21T17:11:35.332Z,39.50
2019-04-21T17:17:13.932Z,40.00
2019-04-21T17:21:45.834Z,40.50
2019-04-21T17:26:51.440Z,41.90
2019-04-21T17:31:57.381Z,43.70
2019-04-21T17:37:03.510Z,43.90
2019-04-21T17:42:18.118Z,44.70
2019-04-21T17:47:27.077Z,43.40
2019-04-21T17:52:50.465Z,43.50
2019-04-21T17:58:05.159Z,43.60
2019-04-21T18:03:27.666Z,44.00
2019-04-21T18:08:23.187Z,43.40
2019-04-21T18:13:32.614Z,43.40
2019-04-21T18:18:39.082Z,43.40
2019-04-21T18:23:54.789Z,44.60
2019-04-21T18:28:55.303Z,45.20
2019-04-21T18:34:04.974Z,45.80
2019-04-21T18:45:40.284Z,45.90
2019-04-21T18:50:37.067Z,45.10
2019-04-21T18:55:41.897Z,45.50
2019-04-21T19:00:45.308Z,45.60
2019-04-21T19:05:54.427Z,46.60
2019-04-21T19:11:15.161Z,47.10
2019-04-21T19:16:33.049Z,48.50
2019-04-21T19:21:24.514Z,49.80
2019-04-21T19:31:46.326Z,52.50
2019-04-21T19:36:32.541Z,54.10
2019-04-21T19:41:52.084Z,55.30
2019-04-21T19:47:03.921Z,56.90
2019-04-21T19:51:59.613Z,59.00
2019-04-21T19:56:58.688Z,61.40
2019-04-21T20:02:06.944Z,63.10
2019-04-21T20:07:28.307Z,64.40
2019-04-21T20:12:40.127Z,66.60
2019-04-21T20:17:42.190Z,68.50
2019-04-21T20:22:38.327Z,70.40
2019-04-21T20:27:49.474Z,72.10
2019-04-21T20:33:05.635Z,74.00
2019-04-21T20:38:09.245Z,75.90
2019-04-21T20:43:17.686Z,77.70
2019-04-21T20:48:18.021Z,79.10
2019-04-21T20:53:33.027Z,80.90
2019-04-21T20:58:34.275Z,81.80
2019-04-21T21:03:46.515Z,82.50
2019-04-21T21:09:11.506Z,82.70
2019-04-21T21:14:16.135Z,82.40
2019-04-21T21:19:30.167Z,83.10
2019-04-21T21:24:38.801Z,83.10
2019-04-21T21:29:33.623Z,82.80
2019-04-21T21:34:47.471Z,85.20
2019-04-21T21:39:57.123Z,86.60
2019-04-21T21:44:50.556Z,87.30
2019-04-21T21:50:00.806Z,87.30
2019-04-21T21:54:55.792Z,87.90
2019-04-21T22:00:04.732Z,88.80
2019-04-21T22:05:14.319Z,89.30
2019-04-21T22:10:16.076Z,90.00
2019-04-21T22:15:24.908Z,90.10
2019-04-21T22:20:42.103Z,90.70
2019-04-21T22:25:38.882Z,91.70
2019-04-21T22:30:46.454Z,91.70
2019-04-21T22:36:21.977Z,92.40
2019-04-21T22:41:40.627Z,92.10
2019-04-21T22:46:53.002Z,92.10
2019-04-21T22:51:51.747Z,92.60
2019-04-21T22:57:02.609Z,93.00
2019-04-21T23:02:05.322Z,93.30
2019-04-21T23:07:28.246Z,93.50
2019-04-21T23:12:38.193Z,94.30
2019-04-21T23:18:00.802Z,94.20
2019-04-21T23:23:14.637Z,94.30
2019-04-21T23:28:11.611Z,95.30
2019-04-21T23:33:06.479Z,95.20
2019-04-21T23:38:10.529Z,95.20
2019-04-21T23:43:19.425Z,95.40
2019-04-21T23:48:32.483Z,95.80
2019-04-21T23:53:47.310Z,95.80
2019-04-21T23:58:59.841Z,96.00
